Time;durP1;ratioP1;P1;durP2;ratioP2;P2;SDS_P1;SDS_P2;PMS_P1;PMS_P2;Temp;Humidity;BMP_temperature;BMP_pressure;BME280_temperature;BME280_humidity;BME280_pressure;Samples;Min_cycle;Max_cycle;Signal;HPM_P1;HPM_P2
2021/08/11 00:01:51;;;;;;;20.62;6.65;;;;;;;21.53;100.00;100296.57;1632515;87;21954;-83
2021/08/11 00:04:17;;;;;;;18.35;7.20;;;;;;;21.53;100.00;100306.72;1633232;87;20919;-87
2021/08/11 00:06:43;;;;;;;18.07;6.90;;;;;;;21.51;100.00;100302.16;1632106;87;21729;-83
2021/08/11 00:09:09;;;;;;;14.68;6.28;;;;;;;21.51;100.00;100293.94;1608484;87;20891;-83
2021/08/11 00:11:35;;;;;;;15.08;6.10;;;;;;;21.44;100.00;100293.14;1599256;89;21673;-83
2021/08/11 00:14:02;;;;;;;13.08;6.00;;;;;;;21.39;100.00;100290.61;1601441;87;21570;-84
2021/08/11 00:16:29;;;;;;;12.95;5.83;;;;;;;21.36;100.00;100292.66;1610713;87;21079;-81
2021/08/11 00:18:55;;;;;;;15.15;6.70;;;;;;;21.31;100.00;100290.09;1640987;85;21052;-83
2021/08/11 00:21:22;;;;;;;17.27;5.97;;;;;;;21.24;100.00;100285.18;1684167;82;20962;-83
2021/08/11 00:23:49;;;;;;;14.20;5.85;;;;;;;21.22;100.00;100281.97;1735779;82;22332;-82
2021/08/11 00:26:15;;;;;;;15.20;6.10;;;;;;;21.18;100.00;100276.12;1735667;82;20986;-83
2021/08/11 00:28:41;;;;;;;15.72;5.70;;;;;;;21.15;100.00;100276.80;1735629;82;21078;-83
2021/08/11 00:31:07;;;;;;;15.48;5.90;;;;;;;21.09;100.00;100278.41;1735691;82;20978;-89
2021/08/11 00:33:33;;;;;;;18.23;6.37;;;;;;;21.07;100.00;100274.40;1735659;82;20984;-83
2021/08/11 00:35:59;;;;;;;15.85;5.78;;;;;;;21.04;100.00;100271.77;1735800;82;21748;-83
2021/08/11 00:38:25;;;;;;;17.32;6.40;;;;;;;21.03;100.00;100277.02;1735700;82;21145;-83
2021/08/11 00:40:51;;;;;;;12.15;5.35;;;;;;;21.01;100.00;100278.50;1775119;80;21027;-84
2021/08/11 00:43:18;;;;;;;16.00;5.75;;;;;;;20.99;100.00;100273.91;1779711;80;20955;-84
2021/08/11 00:45:43;;;;;;;15.43;6.55;;;;;;;20.98;100.00;100273.69;1779602;80;20957;-83
2021/08/11 00:48:11;;;;;;;15.55;6.87;;;;;;;20.99;100.00;100271.17;1779826;80;20875;-83
2021/08/11 00:50:38;;;;;;;13.72;6.05;;;;;;;20.99;100.00;100273.91;1755495;80;21133;-89
2021/08/11 00:53:07;;;;;;;12.68;5.90;;;;;;;20.95;100.00;100270.26;1779683;80;21015;-83
2021/08/11 00:55:38;;;;;;;18.05;7.33;;;;;;;20.90;100.00;100267.72;1779762;80;20996;-82
2021/08/11 00:58:11;;;;;;;15.88;6.50;;;;;;;20.79;100.00;100261.85;1779602;80;20980;-83
2021/08/11 01:00:44;;;;;;;13.98;6.33;;;;;;;20.68;100.00;100264.23;1779755;80;21547;-82
2021/08/11 01:03:17;;;;;;;14.75;6.33;;;;;;;20.67;100.00;100263.18;1690243;84;21137;-83
2021/08/11 01:05:45;;;;;;;17.75;6.78;;;;;;;20.67;100.00;100273.55;1606495;89;21007;-83
2021/08/11 01:08:12;;;;;;;16.80;6.17;;;;;;;20.67;100.00;100272.77;1606478;89;21167;-83
2021/08/11 01:10:40;;;;;;;21.80;6.80;;;;;;;20.68;100.00;100278.46;1606481;89;21057;-83
2021/08/11 01:13:08;;;;;;;14.60;5.90;;;;;;;20.67;100.00;100276.30;1606354;89;21010;-83
2021/08/11 01:15:33;;;;;;;15.63;6.60;;;;;;;20.64;100.00;100279.13;1585521;89;21262;-82
2021/08/11 01:17:59;;;;;;;15.08;5.42;;;;;;;20.64;100.00;100281.88;1606766;89;21603;-83
2021/08/11 01:20:26;;;;;;;12.85;6.12;;;;;;;20.66;100.00;100283.49;1606510;89;21018;-84
2021/08/11 01:23:03;;;;;;;14.70;6.12;;;;;;;20.66;100.00;100282.13;1606557;89;21553;-83
2021/08/11 01:25:42;;;;;;;14.23;6.17;;;;;;;20.65;100.00;100274.48;1585166;89;21011;-81
2021/08/11 01:28:25;;;;;;;11.08;5.90;;;;;;;20.64;100.00;100273.66;1606585;89;21279;-86
2021/08/11 01:31:10;;;;;;;;;;;;;;;20.64;100.00;100274.23;1608927;89;21046;-83
2021/08/11 01:34:08;;;;;;;14.93;6.25;;;;;;;20.65;100.00;100273.11;1606565;89;20151;-83
2021/08/11 01:36:57;;;;;;;17.40;6.42;;;;;;;20.65;100.00;100275.85;1606812;89;21023;-83
2021/08/11 01:39:31;;;;;;;11.10;6.42;;;;;;;20.62;100.00;100273.78;1602159;89;21264;-83
2021/08/11 01:42:16;;;;;;;13.70;6.03;;;;;;;20.62;100.00;100272.41;1657024;86;22035;-82
2021/08/11 01:45:05;;;;;;;15.05;6.15;;;;;;;20.61;100.00;100272.16;1595132;90;21105;-83
2021/08/11 01:47:51;;;;;;;14.13;5.83;;;;;;;20.56;100.00;100276.47;1595475;90;21038;-82
2021/08/11 01:50:20;;;;;;;16.20;6.58;;;;;;;20.50;100.00;100264.09;1594129;90;21053;-83
2021/08/11 01:52:48;;;;;;;14.73;6.35;;;;;;;20.46;100.00;100263.17;1594899;89;21104;-83
2021/08/11 01:55:14;;;;;;;18.40;6.87;;;;;;;20.45;100.00;100269.78;1573043;90;21340;-82
2021/08/11 02:00:18;;;;;;;17.20;6.65;;;;;;;20.38;100.00;100264.83;1521196;94;21103;-82
2021/08/11 02:02:46;;;;;;;17.35;6.55;;;;;;;20.38;100.00;100257.98;1487755;95;21143;-81
2021/08/11 02:05:15;;;;;;;16.75;7.47;;;;;;;20.38;100.00;100255.25;1496665;95;21079;-82
2021/08/11 02:07:42;;;;;;;21.45;7.15;;;;;;;20.40;100.00;100259.25;1496937;95;21198;-82
2021/08/11 02:10:11;;;;;;;13.68;7.05;;;;;;;20.38;100.00;100251.14;1496897;95;21099;-84
2021/08/11 02:12:37;;;;;;;17.92;6.55;;;;;;;20.39;100.00;100252.77;1496853;95;21585;-84
2021/08/11 02:15:07;;;;;;;19.87;6.75;;;;;;;20.35;100.00;100257.28;1496844;95;21169;-82
2021/08/11 02:17:33;;;;;;;18.80;7.17;;;;;;;20.34;100.00;100260.59;1491949;96;21110;-82
2021/08/11 02:19:59;;;;;;;23.22;6.83;;;;;;;20.34;100.00;100264.70;1492168;96;21974;-83
2021/08/11 02:22:25;;;;;;;15.40;6.72;;;;;;;20.28;100.00;100259.19;1492039;96;20939;-82
2021/08/11 02:24:51;;;;;;;15.38;6.78;;;;;;;20.22;100.00;100256.42;1491871;96;21035;-83
2021/08/11 02:27:24;;;;;;;17.40;6.95;;;;;;;20.21;100.00;100258.94;1491993;96;21618;-85
2021/08/11 02:30:10;;;;;;;16.62;6.75;;;;;;;20.22;100.00;100261.09;1490715;96;21180;-82
2021/08/11 02:32:44;;;;;;;13.43;5.47;;;;;;;20.24;100.00;100265.11;1490588;96;21301;-81
2021/08/11 02:35:24;;;;;;;16.23;6.40;;;;;;;20.27;100.00;100269.91;1488169;96;21173;-82
2021/08/11 02:38:10;;;;;;;15.58;6.60;;;;;;;20.30;100.00;100271.98;1468147;97;21084;-82
2021/08/11 02:41:10;;;;;;;16.75;6.20;;;;;;;20.35;100.00;100283.28;1534822;92;21131;-81
2021/08/11 02:43:54;;;;;;;16.05;6.60;;;;;;;20.32;100.00;100279.27;1533676;93;21481;-83
2021/08/11 02:46:24;;;;;;;18.45;7.08;;;;;;;20.30;100.00;100277.45;1533609;93;21235;-80
2021/08/11 02:49:01;;;;;;;16.93;6.62;;;;;;;20.28;100.00;100276.98;1533501;93;21020;-82
2021/08/11 02:51:30;;;;;;;16.55;6.50;;;;;;;20.31;100.00;100279.62;1533640;93;21105;-88
2021/08/11 02:54:03;;;;;;;13.90;6.42;;;;;;;20.33;100.00;100275.42;1533744;93;21090;-83
2021/08/11 02:56:30;;;;;;;13.10;6.17;;;;;;;20.34;100.00;100276.22;1533850;93;21031;-82
2021/08/11 02:58:57;;;;;;;17.00;7.05;;;;;;;20.35;100.00;100265.49;1528924;93;21909;-84
2021/08/11 03:01:29;;;;;;;14.30;6.30;;;;;;;20.37;100.00;100262.66;1542196;93;21044;-83
2021/08/11 03:03:56;;;;;;;13.70;6.15;;;;;;;20.46;100.00;100268.64;1553288;92;21679;-83
2021/08/11 03:06:23;;;;;;;14.40;6.58;;;;;;;20.51;100.00;100265.71;1451604;98;21239;-83
2021/08/11 03:08:51;;;;;;;15.53;6.33;;;;;;;20.58;100.00;100265.98;1451694;97;21087;-82
2021/08/11 03:11:18;;;;;;;12.70;5.80;;;;;;;20.62;100.00;100258.16;1451815;97;21168;-83
2021/08/11 03:13:45;;;;;;;12.78;5.67;;;;;;;20.71;100.00;100260.81;1452496;98;21055;-83
2021/08/11 03:16:12;;;;;;;10.18;5.12;;;;;;;20.79;100.00;100273.61;1492961;95;21109;-83
2021/08/11 03:18:38;;;;;;;14.38;5.10;;;;;;;20.89;100.00;100277.89;1501260;95;21042;-83
2021/08/11 03:21:05;;;;;;;11.90;5.05;;;;;;;21.00;100.00;100282.35;1501365;95;21061;-84
2021/08/11 03:23:31;;;;;;;16.40;5.58;;;;;;;21.12;100.00;100281.59;1501478;95;21293;-82
2021/08/11 03:25:57;;;;;;;13.80;5.70;;;;;;;21.23;100.00;100285.50;1511501;92;20915;-84
2021/08/11 03:28:23;;;;;;;13.50;5.40;;;;;;;21.32;100.00;100281.55;1547877;92;21023;-83
2021/08/11 03:30:49;;;;;;;12.68;5.80;;;;;;;21.45;100.00;100280.22;1578960;88;21063;-83
2021/08/11 03:33:15;;;;;;;13.85;5.55;;;;;;;21.55;100.00;100271.53;1622318;88;20986;-82
2021/08/11 03:35:42;;;;;;;14.60;5.75;;;;;;;21.66;100.00;100265.04;1725605;82;21889;-81
2021/08/11 03:38:08;;;;;;;11.22;5.28;;;;;;;21.78;100.00;100262.30;1739868;82;21127;-90
2021/08/11 03:40:35;;;;;;;14.07;5.15;;;;;;;21.95;100.00;100258.52;1758965;79;21011;-83
2021/08/11 03:43:01;;;;;;;11.38;5.33;;;;;;;22.14;100.00;100263.39;1778859;79;21034;-82
2021/08/11 03:45:27;;;;;;;14.50;5.53;;;;;;;22.40;100.00;100257.53;1778950;79;20916;-82
2021/08/11 03:47:52;;;;;;;18.55;5.45;;;;;;;22.88;100.00;100261.22;1779002;79;21924;-82
2021/08/11 03:50:21;;;;;;;11.03;4.78;;;;;;;23.45;100.00;100266.09;1779172;80;20861;-84
2021/08/11 03:52:48;;;;;;;14.20;5.22;;;;;;;23.95;100.00;100259.84;1778735;79;21535;-82
2021/08/11 03:55:15;;;;;;;15.08;5.33;;;;;;;24.50;100.00;100255.73;1778931;80;21012;-83
2021/08/11 03:57:41;;;;;;;11.88;4.90;;;;;;;25.00;100.00;100252.59;1778944;79;21003;-83
2021/08/11 04:00:08;;;;;;;16.02;5.45;;;;;;;25.50;100.00;100256.25;1778980;80;21939;-83
2021/08/11 04:02:34;;;;;;;14.73;5.22;;;;;;;26.00;100.00;100247.37;1778874;80;21102;-83
2021/08/11 04:05:07;;;;;;;16.97;5.47;;;;;;;26.27;100.00;100243.98;1748326;80;20958;-83
2021/08/11 04:07:35;;;;;;;13.40;4.75;;;;;;;26.15;100.00;100248.36;1779091;80;20992;-83
2021/08/11 04:10:05;;;;;;;15.20;4.83;;;;;;;25.94;100.00;100253.56;1751459;80;21081;-83
2021/08/11 04:12:31;;;;;;;8.90;4.85;;;;;;;25.74;100.00;100249.52;1748137;82;21637;-83
2021/08/11 04:14:56;;;;;;;23.40;5.70;;;;;;;25.62;100.00;100241.45;1758963;80;21013;-83
2021/08/11 04:17:22;;;;;;;15.80;4.85;;;;;;;25.65;100.00;100237.95;1779079;79;20898;-82
2021/08/11 04:19:48;;;;;;;14.03;5.12;;;;;;;25.70;100.00;100233.47;1779040;79;20891;-83
2021/08/11 04:22:14;;;;;;;13.03;5.05;;;;;;;25.71;100.00;100231.53;1748213;80;21065;-83
2021/08/11 04:24:40;;;;;;;17.23;5.17;;;;;;;25.79;100.00;100227.09;1779009;79;21131;-81
2021/08/11 04:27:06;;;;;;;11.60;5.15;;;;;;;25.80;100.00;100234.23;1779008;80;20884;-83
2021/08/11 04:29:31;;;;;;;10.23;4.40;;;;;;;25.79;100.00;100236.76;1778945;80;20900;-83
2021/08/11 04:31:57;;;;;;;9.98;4.28;;;;;;;25.87;100.00;100239.67;1778957;80;20892;-83
2021/08/11 04:34:23;;;;;;;17.10;4.70;;;;;;;25.84;100.00;100237.06;1779052;80;21641;-84
2021/08/11 04:36:49;;;;;;;13.85;5.17;;;;;;;25.82;100.00;100242.16;1779097;79;21052;-84
2021/08/11 04:39:15;;;;;;;19.02;5.17;;;;;;;25.82;100.00;100244.91;1778857;79;20841;-82
2021/08/11 04:41:41;;;;;;;13.32;5.05;;;;;;;25.88;100.00;100249.53;1778624;80;21625;-83
2021/08/11 04:44:10;;;;;;;16.12;4.90;;;;;;;25.92;100.00;100253.95;1748624;80;20865;-83
2021/08/11 04:46:35;;;;;;;17.62;4.87;;;;;;;26.02;100.00;100253.30;1778458;80;20993;-84
2021/08/11 04:49:00;;;;;;;20.85;6.05;;;;;;;26.19;100.00;100253.34;1779227;80;21059;-83
2021/08/11 04:51:26;;;;;;;15.88;6.62;;;;;;;26.79;100.00;100253.89;1778937;80;20943;-84
2021/08/11 04:53:52;;;;;;;14.83;5.65;;;;;;;27.40;100.00;100253.13;1778929;80;20884;-83
2021/08/11 04:56:19;;;;;;;20.15;7.75;;;;;;;27.98;100.00;100256.55;1748735;80;20849;-83
2021/08/11 04:58:45;;;;;;;22.95;7.30;;;;;;;28.86;98.73;100253.78;1778737;80;20989;-83
2021/08/11 05:01:11;;;;;;;21.17;7.45;;;;;;;29.56;92.03;100251.47;1779089;79;21586;-83
2021/08/11 05:03:37;;;;;;;19.60;7.40;;;;;;;30.25;84.47;100253.00;1778939;79;20880;-83
2021/08/11 05:06:05;;;;;;;17.20;7.78;;;;;;;30.99;83.50;100257.41;1778914;79;21508;-84
2021/08/11 05:08:30;;;;;;;22.90;8.45;;;;;;;31.84;73.70;100245.99;1722135;80;21487;-84
2021/08/11 05:10:56;;;;;;;23.25;7.97;;;;;;;32.20;65.81;100243.63;1779148;80;20968;-84
2021/08/11 05:13:22;;;;;;;20.02;8.28;;;;;;;32.52;60.84;100242.47;1778886;80;21043;-84
2021/08/11 05:15:48;;;;;;;23.30;7.45;;;;;;;32.52;60.84;100242.47;1778741;80;20967;-84
2021/08/11 05:18:17;;;;;;;18.82;7.97;;;;;;;32.86;58.63;100247.98;1778805;80;21642;-83
2021/08/11 05:20:45;;;;;;;14.13;7.10;;;;;;;33.12;57.36;100256.20;1778914;80;21566;-85
2021/08/11 05:23:11;;;;;;;14.07;7.20;;;;;;;33.27;55.25;100257.34;1710700;83;21043;-84
2021/08/11 05:25:37;;;;;;;14.63;7.28;;;;;;;32.75;54.01;100261.30;1710650;83;21148;-83
2021/08/11 05:28:03;;;;;;;14.38;6.10;;;;;;;32.73;55.92;100258.13;1686890;83;21669;-84
2021/08/11 05:30:29;;;;;;;16.48;6.12;;;;;;;33.16;55.05;100254.13;1710805;83;21594;-83
2021/08/11 05:32:55;;;;;;;13.53;5.90;;;;;;;33.68;52.95;100259.89;1710752;83;21057;-85
2021/08/11 05:35:21;;;;;;;14.43;5.78;;;;;;;34.07;50.90;100251.40;1710734;83;21012;-84
2021/08/11 05:37:48;;;;;;;12.05;5.53;;;;;;;34.16;49.72;100257.20;1710590;83;21091;-89
2021/08/11 05:40:16;;;;;;;15.55;6.35;;;;;;;34.51;49.61;100257.08;1711205;83;21047;-84
2021/08/11 05:42:42;;;;;;;12.85;5.75;;;;;;;34.48;46.59;100264.16;1715804;83;21574;-84
2021/08/11 05:45:09;;;;;;;12.98;5.37;;;;;;;34.45;46.97;100270.00;1716179;83;21126;-85
2021/08/11 05:47:35;;;;;;;11.20;5.33;;;;;;;34.75;46.69;100272.39;1716255;82;21006;-84
2021/08/11 05:50:03;;;;;;;16.20;5.20;;;;;;;34.62;46.63;100265.87;1716060;83;21769;-84
2021/08/11 05:52:29;;;;;;;14.07;5.92;;;;;;;34.59;47.02;100261.92;1716001;83;21485;-83
2021/08/11 05:54:55;;;;;;;20.88;5.75;;;;;;;34.34;46.73;100265.23;1716254;83;20979;-84
2021/08/11 05:57:21;;;;;;;14.03;6.12;;;;;;;34.06;46.81;100270.77;1716298;83;21043;-83
2021/08/11 05:59:48;;;;;;;15.32;6.15;;;;;;;33.51;46.38;100266.55;1715992;83;20936;-83
2021/08/11 06:02:14;;;;;;;15.30;5.72;;;;;;;33.06;48.51;100274.61;1715875;83;21054;-83
2021/08/11 06:04:40;;;;;;;12.43;5.05;;;;;;;32.94;49.33;100278.75;1715710;83;21011;-83
2021/08/11 06:07:06;;;;;;;13.32;5.05;;;;;;;32.74;49.29;100279.27;1715962;83;20939;-83
2021/08/11 06:09:32;;;;;;;11.57;5.22;;;;;;;32.56;50.95;100280.86;1716185;83;21097;-83
2021/08/11 06:11:59;;;;;;;14.87;5.12;;;;;;;32.17;49.74;100274.34;1715976;83;21027;-84
2021/08/11 06:14:25;;;;;;;13.38;5.50;;;;;;;31.76;51.67;100275.13;1681458;83;21086;-84
2021/08/11 06:16:51;;;;;;;12.63;5.33;;;;;;;31.63;54.04;100274.25;1715944;83;21598;-83
2021/08/11 06:19:17;;;;;;;9.93;5.70;;;;;;;32.18;54.74;100267.55;1726927;80;20847;-84
2021/08/11 06:21:43;;;;;;;16.90;5.20;;;;;;;33.00;52.88;100263.73;1774481;80;21037;-83
2021/08/11 06:24:09;;;;;;;12.20;5.20;;;;;;;33.30;51.50;100257.30;1774537;80;20989;-84
2021/08/11 06:26:37;;;;;;;13.13;5.55;;;;;;;33.18;50.78;100256.48;1774624;80;21139;-84
2021/08/11 06:29:03;;;;;;;13.90;5.33;;;;;;;33.02;52.96;100262.72;1774481;80;20978;-83
2021/08/11 06:31:29;;;;;;;14.18;5.22;;;;;;;32.94;51.86;100261.20;1774501;79;20871;-83
2021/08/11 06:33:55;;;;;;;9.40;5.05;;;;;;;32.91;52.50;100255.86;1774355;80;20990;-83
2021/08/11 06:36:22;;;;;;;12.55;4.50;;;;;;;32.84;51.49;100253.80;1774536;80;20973;-84
2021/08/11 06:38:49;;;;;;;15.15;4.97;;;;;;;32.89;52.51;100254.11;1774549;80;21046;-83
2021/08/11 06:41:16;;;;;;;12.03;5.75;;;;;;;33.11;51.08;100256.00;1784407;79;21467;-84
2021/08/11 06:43:47;;;;;;;24.80;6.00;;;;;;;33.44;50.70;100252.06;1735964;82;21005;-78
2021/08/11 06:46:14;;;;;;;16.45;5.50;;;;;;;33.73;49.92;100253.78;1766687;81;21534;-79
2021/08/11 06:48:40;;;;;;;11.95;5.37;;;;;;;34.00;48.45;100250.09;1766562;81;21137;-78
2021/08/11 06:51:08;;;;;;;17.57;6.25;;;;;;;34.06;47.49;100238.61;1734566;82;21182;-78
2021/08/11 06:53:35;;;;;;;12.15;5.25;;;;;;;33.78;48.43;100240.72;1766559;79;21093;-78
2021/08/11 06:56:01;;;;;;;8.73;4.75;;;;;;;33.64;48.43;100238.97;1766345;81;21138;-79
2021/08/11 06:58:27;;;;;;;11.10;5.08;;;;;;;33.44;48.49;100233.32;1766455;79;20955;-78
2021/08/11 07:00:56;;;;;;;12.70;5.15;;;;;;;33.46;49.08;100232.27;1766465;81;21038;-78
2021/08/11 07:03:22;;;;;;;12.05;4.80;;;;;;;33.57;49.22;100233.52;1766216;79;20995;-78
2021/08/11 07:05:50;;;;;;;11.25;5.22;;;;;;;33.67;48.48;100233.14;1734188;82;20974;-77
2021/08/11 07:08:15;;;;;;;13.03;4.90;;;;;;;33.80;49.15;100229.91;1713043;83;21026;-82
2021/08/11 07:10:42;;;;;;;7.75;4.22;;;;;;;33.82;48.48;100234.44;1730469;82;20852;-78
2021/08/11 07:13:08;;;;;;;8.65;4.22;;;;;;;33.75;48.99;100227.60;1730185;82;20998;-79
2021/08/11 07:15:34;;;;;;;11.95;4.65;;;;;;;33.66;49.22;100237.16;1730117;82;21165;-77
2021/08/11 07:18:00;;;;;;;10.13;4.80;;;;;;;33.56;49.32;100232.53;1730175;82;21118;-79
2021/08/11 07:22:58;;;;;;;12.23;5.03;;;;;;;33.24;50.08;100236.05;1649329;87;21640;-79
2021/08/11 07:25:26;;;;;;;11.88;4.95;;;;;;;33.14;49.82;100241.80;1637264;87;21134;-79
2021/08/11 07:27:53;;;;;;;14.03;5.12;;;;;;;33.18;50.15;100245.31;1637692;87;21183;-79
2021/08/11 07:30:19;;;;;;;12.73;5.30;;;;;;;33.19;50.46;100239.92;1637291;87;21137;-79
2021/08/11 07:32:45;;;;;;;15.80;5.05;;;;;;;33.16;48.58;100242.17;1615723;87;21110;-80
2021/08/11 07:35:13;;;;;;;15.28;4.75;;;;;;;33.00;50.88;100251.98;1637451;87;21625;-80
2021/08/11 07:37:52;;;;;;;13.70;5.25;;;;;;;32.97;50.35;100258.39;1637623;87;21074;-80
2021/08/11 07:40:21;;;;;;;13.62;5.00;;;;;;;33.01;51.10;100255.56;1637387;87;21521;-79
2021/08/11 07:42:47;;;;;;;10.93;5.03;;;;;;;32.83;49.74;100262.78;1634105;86;21126;-80
2021/08/11 07:45:15;;;;;;;9.60;4.72;;;;;;;32.70;49.70;100261.75;1634390;86;21054;-80
2021/08/11 07:47:46;;;;;;;9.05;4.90;;;;;;;32.90;49.92;100258.48;1634665;86;21566;-81
2021/08/11 07:50:10;;;;;;;16.00;5.75;;;;;;;32.99;51.56;100259.38;1612998;87;21038;-80
2021/08/11 07:52:36;;;;;;;16.12;5.33;;;;;;;33.32;49.45;100255.47;1634538;86;21076;-79
2021/08/11 07:55:02;;;;;;;10.28;5.20;;;;;;;33.40;50.11;100254.92;1634457;86;20919;-81
2021/08/11 07:57:28;;;;;;;13.22;5.03;;;;;;;33.72;49.08;100248.02;1634631;87;21046;-80
2021/08/11 07:59:54;;;;;;;13.18;4.62;;;;;;;34.25;48.66;100251.82;1634767;86;20974;-80
2021/08/11 08:02:22;;;;;;;22.98;5.42;;;;;;;35.34;48.83;100244.02;1633160;86;21020;-79
2021/08/11 08:04:48;;;;;;;15.70;5.33;;;;;;;36.47;44.95;100249.16;1584597;89;21146;-78
2021/08/11 08:07:13;;;;;;;10.78;5.45;;;;;;;37.44;45.24;100246.14;1563435;90;20976;-78
2021/08/11 08:09:39;;;;;;;11.68;6.12;;;;;;;38.64;40.82;100247.87;1578120;90;20966;-78
2021/08/11 08:12:06;;;;;;;20.77;5.87;;;;;;;38.50;37.97;100245.60;1602126;89;20984;-78
2021/08/11 08:14:33;;;;;;;16.25;5.80;;;;;;;38.71;38.56;100239.75;1593189;89;21137;-78
2021/08/11 08:16:59;;;;;;;18.10;5.55;;;;;;;39.09;37.43;100242.25;1579445;89;21428;-78
2021/08/11 08:19:25;;;;;;;10.95;5.83;;;;;;;39.29;36.46;100243.24;1612730;86;21534;-78
2021/08/11 08:21:54;;;;;;;17.52;6.87;;;;;;;38.82;36.12;100237.30;1630770;87;21061;-78
2021/08/11 08:24:20;;;;;;;17.62;5.50;;;;;;;38.83;35.93;100236.84;1629698;87;21126;-79
2021/08/11 08:26:46;;;;;;;13.98;5.30;;;;;;;38.95;36.55;100238.64;1620163;88;21119;-79
2021/08/11 08:29:12;;;;;;;12.13;5.70;;;;;;;39.20;35.62;100239.78;1629697;87;21156;-79
2021/08/11 08:31:39;;;;;;;12.03;6.17;;;;;;;39.61;35.16;100230.62;1672870;85;21157;-79
2021/08/11 08:34:05;;;;;;;12.78;5.50;;;;;;;40.36;35.78;100230.11;1672708;85;21168;-78
2021/08/11 08:36:32;;;;;;;8.93;5.45;;;;;;;41.35;33.33;100229.19;1711913;82;21089;-78
2021/08/11 08:38:58;;;;;;;14.83;6.25;;;;;;;41.51;31.57;100231.62;1713030;82;21070;-82
2021/08/11 08:41:24;;;;;;;10.38;5.67;;;;;;;40.79;31.49;100237.19;1745871;82;22035;-79
2021/08/11 08:43:50;;;;;;;17.45;5.80;;;;;;;40.50;32.55;100246.22;1732873;82;21005;-79
2021/08/11 08:46:17;;;;;;;7.87;5.20;;;;;;;40.64;33.04;100242.75;1727905;83;21604;-79
2021/08/11 08:48:43;;;;;;;15.00;5.85;;;;;;;40.92;32.45;100243.41;1727710;83;21490;-80
2021/08/11 08:51:14;;;;;;;12.07;5.12;;;;;;;41.24;32.14;100246.09;1728132;83;21050;-79
2021/08/11 08:53:44;;;;;;;15.13;5.83;;;;;;;41.33;32.17;100241.00;1727415;82;21184;-77
2021/08/11 08:56:10;;;;;;;12.93;5.45;;;;;;;41.28;31.58;100243.84;1661730;84;21047;-79
2021/08/11 08:58:42;;;;;;;16.32;6.05;;;;;;;41.29;31.52;100240.37;1670819;85;21079;-79
2021/08/11 09:01:08;;;;;;;;;;;;;;;40.59;30.90;100231.45;1668708;84;21065;-79
2021/08/11 09:03:35;;;;;;;11.18;5.95;;;;;;;39.70;31.24;100234.84;1693414;82;20230;-80
2021/08/11 09:06:02;;;;;;;13.50;5.22;;;;;;;39.15;32.93;100234.78;1708975;84;21130;-79
2021/08/11 09:08:28;;;;;;;11.70;5.35;;;;;;;39.92;32.58;100233.31;1708996;84;20975;-79
2021/08/11 09:10:54;;;;;;;16.30;5.80;;;;;;;40.84;32.12;100228.06;1708970;84;21724;-77
2021/08/11 09:13:23;;;;;;;17.57;6.05;;;;;;;41.50;30.30;100230.04;1709170;84;20990;-78
2021/08/11 09:15:52;;;;;;;15.93;5.92;;;;;;;41.38;30.06;100229.00;1709129;84;21093;-78
2021/08/11 09:18:22;;;;;;;11.10;5.35;;;;;;;41.34;30.35;100225.58;1708999;84;21523;-79
2021/08/11 09:21:09;;;;;;;13.72;6.62;;;;;;;41.53;30.65;100229.06;1709005;84;21093;-82
2021/08/11 09:23:40;;;;;;;12.53;5.83;;;;;;;41.15;29.43;100227.73;1705105;84;21129;-79
2021/08/11 09:26:12;;;;;;;12.28;5.45;;;;;;;41.16;30.80;100227.91;1709041;84;21584;-79
2021/08/11 09:28:41;;;;;;;12.58;5.70;;;;;;;41.56;29.24;100232.98;1686517;84;21081;-78
2021/08/11 09:31:26;;;;;;;13.18;5.00;;;;;;;41.75;28.77;100230.16;1708990;84;21872;-78
2021/08/11 09:33:58;;;;;;;16.23;5.62;;;;;;;41.35;28.74;100225.72;1708859;84;21049;-79
2021/08/11 09:36:25;;;;;;;11.60;5.78;;;;;;;40.57;29.85;100224.07;1686327;84;21049;-79
2021/08/11 09:39:04;;;;;;;13.38;5.75;;;;;;;40.51;30.20;100222.38;1708946;84;21313;-78
2021/08/11 09:41:33;;;;;;;14.73;5.70;;;;;;;40.47;30.45;100219.70;1711446;82;21010;-76
2021/08/11 09:44:09;;;;;;;10.58;5.83;;;;;;;40.80;29.65;100221.17;1720776;83;21310;-79
2021/08/11 09:46:39;;;;;;;13.28;5.90;;;;;;;40.89;30.39;100223.78;1720533;83;21053;-79
2021/08/11 09:49:20;;;;;;;22.58;6.60;;;;;;;40.89;29.97;100221.76;1705287;84;21640;-79
2021/08/11 09:51:55;;;;;;;19.77;5.70;;;;;;;40.55;30.16;100214.50;1705504;84;21660;-78
2021/08/11 09:54:23;;;;;;;13.70;5.67;;;;;;;40.08;30.49;100215.23;1782423;80;21520;-78
2021/08/11 09:56:48;;;;;;;15.95;6.15;;;;;;;39.16;30.61;100195.45;1727735;81;21101;-81
2021/08/11 09:59:14;;;;;;;14.47;5.62;;;;;;;39.25;30.80;100213.80;1752239;81;20932;-81
2021/08/11 10:01:40;;;;;;;17.23;6.40;;;;;;;39.43;31.64;100220.73;1752108;81;20900;-79
2021/08/11 10:04:13;;;;;;;17.82;6.47;;;;;;;39.59;30.81;100214.00;1752176;81;21133;-82
2021/08/11 10:06:42;;;;;;;18.45;5.78;;;;;;;39.43;31.40;100217.92;1670743;85;21059;-81
2021/08/11 10:09:27;;;;;;;15.50;6.42;;;;;;;39.23;31.07;100215.51;1671186;85;22049;-81
2021/08/11 10:11:57;;;;;;;14.40;5.90;;;;;;;39.40;31.29;100210.40;1671048;85;21138;-82
2021/08/11 10:14:29;;;;;;;12.50;6.10;;;;;;;39.60;31.29;100216.99;1671222;85;21263;-81
2021/08/11 10:16:58;;;;;;;18.37;6.30;;;;;;;39.99;31.04;100215.89;1670985;85;21014;-81
2021/08/11 10:19:29;;;;;;;12.65;5.60;;;;;;;40.00;30.51;100213.21;1671374;85;21050;-82
2021/08/11 10:22:08;;;;;;;15.30;5.87;;;;;;;40.10;30.17;100214.78;1671256;85;21074;-82
2021/08/11 10:24:35;;;;;;;10.58;5.78;;;;;;;40.13;30.33;100207.55;1671169;85;21026;-82
2021/08/11 10:27:07;;;;;;;22.13;6.42;;;;;;;39.87;30.18;100209.94;1671142;85;21023;-82
2021/08/11 10:29:39;;;;;;;16.07;5.95;;;;;;;39.35;31.31;100203.97;1666676;86;21063;-83
2021/08/11 10:32:07;;;;;;;18.20;6.33;;;;;;;39.40;31.92;100204.76;1669775;86;21059;-83
2021/08/11 10:34:34;;;;;;;15.55;5.50;;;;;;;39.42;31.38;100207.91;1669483;86;21143;-83
2021/08/11 10:37:01;;;;;;;15.28;6.12;;;;;;;39.20;31.03;100205.17;1669421;86;21087;-81
2021/08/11 10:39:36;;;;;;;14.58;6.05;;;;;;;38.90;31.62;100204.80;1669338;86;21096;-86
2021/08/11 10:42:12;;;;;;;27.07;6.80;;;;;;;38.69;32.18;100205.02;1662254;86;21147;-83
2021/08/11 10:44:39;;;;;;;18.27;6.17;;;;;;;38.30;31.59;100207.31;1605284;89;21538;-84
2021/08/11 10:47:08;;;;;;;13.72;5.75;;;;;;;37.89;32.65;100205.63;1599278;89;21106;-83
2021/08/11 10:49:51;;;;;;;13.18;5.78;;;;;;;37.92;33.05;100202.67;1599041;89;21073;-83
2021/08/11 10:52:17;;;;;;;13.95;6.53;;;;;;;37.92;33.93;100207.52;1575735;90;21612;-83
2021/08/11 10:55:00;;;;;;;15.40;7.22;;;;;;;37.85;33.70;100207.14;1579336;90;21062;-86
2021/08/11 10:57:38;;;;;;;18.23;6.60;;;;;;;37.67;34.57;100209.81;1574305;91;21551;-83
2021/08/11 11:00:11;;;;;;;17.60;6.37;;;;;;;37.59;34.35;100202.24;1573996;91;22043;-84
2021/08/11 11:02:44;;;;;;;14.87;6.25;;;;;;;37.45;35.08;100197.89;1576099;91;21548;-83
2021/08/11 11:05:28;;;;;;;17.67;6.37;;;;;;;37.46;35.64;100200.86;1576214;91;21025;-82
2021/08/11 11:08:15;;;;;;;22.17;6.75;;;;;;;37.63;35.04;100197.30;1576381;91;21532;-83
2021/08/11 11:10:46;;;;;;;17.87;7.03;;;;;;;37.73;34.98;100196.73;1565663;91;21118;-83
2021/08/11 11:13:30;;;;;;;18.70;7.62;;;;;;;37.63;35.38;100203.55;1577790;90;21119;-84
2021/08/11 11:16:01;;;;;;;25.70;8.60;;;;;;;37.68;35.06;100193.91;1577575;91;21099;-84
2021/08/11 11:18:27;;;;;;;14.15;6.83;;;;;;;37.67;35.01;100197.94;1565423;91;21093;-85
2021/08/11 11:21:01;;;;;;;15.18;7.62;;;;;;;37.77;34.12;100193.19;1565529;91;21065;-85
2021/08/11 11:23:43;;;;;;;18.90;7.37;;;;;;;37.82;34.28;100193.20;1565447;91;21057;-83
2021/08/11 11:26:21;;;;;;;15.48;7.50;;;;;;;38.00;34.12;100196.17;1565657;91;21326;-84
2021/08/11 11:29:04;;;;;;;21.82;6.83;;;;;;;38.03;34.89;100196.66;1565012;90;21080;-84